sensor_id;sensor_type;location;lat;lon;timestamp;temperature;humidity
1800;DHT22;919;48.274;12.292;2022-10-31T00:00:08;8.90;99.90
1800;DHT22;919;48.274;12.292;2022-10-31T00:02:36;8.80;99.90
1800;DHT22;919;48.274;12.292;2022-10-31T00:05:03;8.90;99.90
1800;DHT22;919;48.274;12.292;2022-10-31T00:07:30;9.00;99.90
1800;DHT22;919;48.274;12.292;2022-10-31T00:09:57;9.00;99.90
1800;DHT22;919;48.274;12.292;2022-10-31T00:12:23;9.00;99.90
1800;DHT22;919;48.274;12.292;2022-10-31T00:14:50;9.00;99.90
1800;DHT22;919;48.274;12.292;2022-10-31T00:17:17;9.10;99.90
1800;DHT22;919;48.274;12.292;2022-10-31T00:19:45;9.00;99.90
1800;DHT22;919;48.274;12.292;2022-10-31T00:22:12;9.00;99.90
1800;DHT22;919;48.274;12.292;2022-10-31T00:24:39;8.90;99.90
1800;DHT22;919;48.274;12.292;2022-10-31T00:27:05;8.80;99.90
1800;DHT22;919;48.274;12.292;2022-10-31T00:29:32;8.80;99.90
1800;DHT22;919;48.274;12.292;2022-10-31T00:31:59;8.80;99.90
1800;DHT22;919;48.274;12.292;2022-10-31T00:34:26;8.70;99.90
1800;DHT22;919;48.274;12.292;2022-10-31T00:36:54;8.70;99.90
1800;DHT22;919;48.274;12.292;2022-10-31T00:39:21;8.60;99.90
1800;DHT22;919;48.274;12.292;2022-10-31T00:41:47;8.70;99.90
1800;DHT22;919;48.274;12.292;2022-10-31T00:44:14;8.70;99.90
1800;DHT22;919;48.274;12.292;2022-10-31T00:46:41;8.60;99.90
1800;DHT22;919;48.274;12.292;2022-10-31T00:49:08;8.50;99.90
1800;DHT22;919;48.274;12.292;2022-10-31T00:51:35;8.50;99.90
1800;DHT22;919;48.274;12.292;2022-10-31T00:54:03;8.50;99.90
1800;DHT22;919;48.274;12.292;2022-10-31T00:56:30;8.50;99.90
1800;DHT22;919;48.274;12.292;2022-10-31T00:58:57;8.50;99.90
1800;DHT22;919;48.274;12.292;2022-10-31T01:01:24;8.50;99.90
1800;DHT22;919;48.274;12.292;2022-10-31T01:03:50;8.60;99.90
1800;DHT22;919;48.274;12.292;2022-10-31T01:06:17;8.50;99.90
1800;DHT22;919;48.274;12.292;2022-10-31T01:08:46;8.40;99.90
1800;DHT22;919;48.274;12.292;2022-10-31T01:11:18;8.30;99.90
1800;DHT22;919;48.274;12.292;2022-10-31T01:13:45;8.30;99.90
1800;DHT22;919;48.274;12.292;2022-10-31T01:16:16;8.30;99.90
1800;DHT22;919;48.274;12.292;2022-10-31T01:18:44;8.30;99.90
1800;DHT22;919;48.274;12.292;2022-10-31T01:21:12;8.40;99.90
1800;DHT22;919;48.274;12.292;2022-10-31T01:23:42;8.30;99.90
1800;DHT22;919;48.274;12.292;2022-10-31T01:26:10;8.30;99.90
1800;DHT22;919;48.274;12.292;2022-10-31T01:28:44;8.30;99.90
1800;DHT22;919;48.274;12.292;2022-10-31T01:31:11;8.30;99.90
1800;DHT22;919;48.274;12.292;2022-10-31T01:33:39;8.20;99.90
1800;DHT22;919;48.274;12.292;2022-10-31T01:36:15;8.20;99.90
1800;DHT22;919;48.274;12.292;2022-10-31T01:38:42;8.20;99.90
1800;DHT22;919;48.274;12.292;2022-10-31T01:41:10;8.10;99.90
1800;DHT22;919;48.274;12.292;2022-10-31T01:43:51;8.00;99.90
1800;DHT22;919;48.274;12.292;2022-10-31T01:46:22;8.00;99.90
1800;DHT22;919;48.274;12.292;2022-10-31T01:48:51;8.00;99.90
1800;DHT22;919;48.274;12.292;2022-10-31T01:51:21;8.00;99.90
1800;DHT22;919;48.274;12.292;2022-10-31T01:53:50;8.00;99.90
1800;DHT22;919;48.274;12.292;2022-10-31T01:56:19;7.90;99.90
1800;DHT22;919;48.274;12.292;2022-10-31T01:58:46;7.90;99.90
1800;DHT22;919;48.274;12.292;2022-10-31T02:01:14;7.90;99.90
1800;DHT22;919;48.274;12.292;2022-10-31T02:03:43;7.80;99.90
1800;DHT22;919;48.274;12.292;2022-10-31T02:06:17;7.60;99.90
1800;DHT22;919;48.274;12.292;2022-10-31T02:08:46;7.50;99.90
1800;DHT22;919;48.274;12.292;2022-10-31T02:11:13;7.50;99.90
1800;DHT22;919;48.274;12.292;2022-10-31T02:13:40;7.40;99.90
1800;DHT22;919;48.274;12.292;2022-10-31T02:16:09;7.30;99.90
1800;DHT22;919;48.274;12.292;2022-10-31T02:18:37;7.20;99.90
1800;DHT22;919;48.274;12.292;2022-10-31T02:21:11;7.20;99.90
1800;DHT22;919;48.274;12.292;2022-10-31T02:26:59;7.40;99.90
1800;DHT22;919;48.274;12.292;2022-10-31T02:29:53;7.50;99.90
1800;DHT22;919;48.274;12.292;2022-10-31T02:32:29;7.50;99.90
1800;DHT22;919;48.274;12.292;2022-10-31T02:35:06;7.40;99.90
1800;DHT22;919;48.274;12.292;2022-10-31T02:37:38;7.40;99.90
1800;DHT22;919;48.274;12.292;2022-10-31T02:40:14;7.40;99.90
1800;DHT22;919;48.274;12.292;2022-10-31T02:42:50;7.40;99.90
1800;DHT22;919;48.274;12.292;2022-10-31T02:45:23;7.40;99.90
1800;DHT22;919;48.274;12.292;2022-10-31T02:47:53;7.40;99.90
1800;DHT22;919;48.274;12.292;2022-10-31T02:50:26;7.40;99.90
1800;DHT22;919;48.274;12.292;2022-10-31T02:52:53;7.40;99.90
1800;DHT22;919;48.274;12.292;2022-10-31T02:55:42;7.50;99.90
1800;DHT22;919;48.274;12.292;2022-10-31T02:58:13;7.50;99.90
1800;DHT22;919;48.274;12.292;2022-10-31T03:00:48;7.60;99.90
1800;DHT22;919;48.274;12.292;2022-10-31T03:03:20;7.60;99.90
1800;DHT22;919;48.274;12.292;2022-10-31T03:05:55;7.70;99.90
1800;DHT22;919;48.274;12.292;2022-10-31T03:08:31;7.70;99.90
1800;DHT22;919;48.274;12.292;2022-10-31T03:11:02;7.70;99.90
1800;DHT22;919;48.274;12.292;2022-10-31T03:13:34;7.80;99.90
1800;DHT22;919;48.274;12.292;2022-10-31T03:16:08;7.70;99.90
1800;DHT22;919;48.274;12.292;2022-10-31T03:18:40;7.70;99.90
1800;DHT22;919;48.274;12.292;2022-10-31T03:21:13;7.70;99.90
1800;DHT22;919;48.274;12.292;2022-10-31T03:23:42;7.70;99.90
1800;DHT22;919;48.274;12.292;2022-10-31T03:26:11;7.60;99.90
1800;DHT22;919;48.274;12.292;2022-10-31T03:28:45;7.60;99.90
1800;DHT22;919;48.274;12.292;2022-10-31T03:31:16;7.50;99.90
1800;DHT22;919;48.274;12.292;2022-10-31T03:33:46;7.60;99.90
1800;DHT22;919;48.274;12.292;2022-10-31T03:36:14;7.60;99.90
1800;DHT22;919;48.274;12.292;2022-10-31T03:38:42;7.50;99.90
1800;DHT22;919;48.274;12.292;2022-10-31T03:41:15;7.40;99.90
1800;DHT22;919;48.274;12.292;2022-10-31T03:43:48;7.40;99.90
1800;DHT22;919;48.274;12.292;2022-10-31T03:46:16;7.40;99.90
1800;DHT22;919;48.274;12.292;2022-10-31T03:48:45;7.40;99.90
1800;DHT22;919;48.274;12.292;2022-10-31T03:51:15;7.40;99.90
1800;DHT22;919;48.274;12.292;2022-10-31T03:53:51;7.40;99.90
1800;DHT22;919;48.274;12.292;2022-10-31T03:56:22;7.30;99.90
1800;DHT22;919;48.274;12.292;2022-10-31T03:58:58;7.20;99.90
1800;DHT22;919;48.274;12.292;2022-10-31T04:01:28;7.10;99.90
1800;DHT22;919;48.274;12.292;2022-10-31T04:03:58;7.10;99.90
1800;DHT22;919;48.274;12.292;2022-10-31T04:06:26;7.10;99.90
1800;DHT22;919;48.274;12.292;2022-10-31T04:08:57;7.10;99.90
1800;DHT22;919;48.274;12.292;2022-10-31T04:11:31;7.00;99.90
1800;DHT22;919;48.274;12.292;2022-10-31T04:14:00;7.00;99.90
1800;DHT22;919;48.274;12.292;2022-10-31T04:16:27;7.00;99.90
1800;DHT22;919;48.274;12.292;2022-10-31T04:18:54;7.00;99.90
1800;DHT22;919;48.274;12.292;2022-10-31T04:21:28;7.00;99.90
1800;DHT22;919;48.274;12.292;2022-10-31T04:23:55;7.10;99.90
1800;DHT22;919;48.274;12.292;2022-10-31T04:26:23;7.10;99.90
1800;DHT22;919;48.274;12.292;2022-10-31T04:28:49;7.10;99.90
1800;DHT22;919;48.274;12.292;2022-10-31T04:31:16;7.20;99.90
1800;DHT22;919;48.274;12.292;2022-10-31T04:33:43;7.10;99.90
1800;DHT22;919;48.274;12.292;2022-10-31T04:36:10;7.10;99.90
1800;DHT22;919;48.274;12.292;2022-10-31T04:38:39;7.20;99.90
1800;DHT22;919;48.274;12.292;2022-10-31T04:41:05;7.10;99.90
1800;DHT22;919;48.274;12.292;2022-10-31T04:43:32;7.10;99.90
1800;DHT22;919;48.274;12.292;2022-10-31T04:45:59;7.00;99.90
1800;DHT22;919;48.274;12.292;2022-10-31T04:48:26;7.00;99.90
1800;DHT22;919;48.274;12.292;2022-10-31T04:50:52;7.00;99.90
1800;DHT22;919;48.274;12.292;2022-10-31T04:53:19;7.10;99.90
1800;DHT22;919;48.274;12.292;2022-10-31T04:55:47;7.00;99.90
1800;DHT22;919;48.274;12.292;2022-10-31T04:58:14;6.90;99.90
1800;DHT22;919;48.274;12.292;2022-10-31T05:00:41;6.80;99.90
1800;DHT22;919;48.274;12.292;2022-10-31T05:03:08;6.70;99.90
1800;DHT22;919;48.274;12.292;2022-10-31T05:05:35;6.70;99.90
1800;DHT22;919;48.274;12.292;2022-10-31T05:08:01;6.60;99.90
1800;DHT22;919;48.274;12.292;2022-10-31T05:10:30;6.50;99.90
1800;DHT22;919;48.274;12.292;2022-10-31T05:13:00;6.40;99.90
1800;DHT22;919;48.274;12.292;2022-10-31T05:15:27;6.30;99.90
1800;DHT22;919;48.274;12.292;2022-10-31T05:17:55;6.20;99.90
1800;DHT22;919;48.274;12.292;2022-10-31T05:20:23;6.30;99.90
1800;DHT22;919;48.274;12.292;2022-10-31T05:22:52;6.40;99.90
1800;DHT22;919;48.274;12.292;2022-10-31T05:25:21;6.30;99.90
1800;DHT22;919;48.274;12.292;2022-10-31T05:27:49;6.30;99.90
1800;DHT22;919;48.274;12.292;2022-10-31T05:30:19;6.20;99.90
1800;DHT22;919;48.274;12.292;2022-10-31T05:32:48;6.20;99.90
1800;DHT22;919;48.274;12.292;2022-10-31T05:35:16;6.20;99.90
1800;DHT22;919;48.274;12.292;2022-10-31T05:37:43;6.20;99.90
1800;DHT22;919;48.274;12.292;2022-10-31T05:40:12;6.20;99.90
1800;DHT22;919;48.274;12.292;2022-10-31T05:42:40;6.20;99.90
1800;DHT22;919;48.274;12.292;2022-10-31T05:45:08;6.30;99.90
1800;DHT22;919;48.274;12.292;2022-10-31T05:47:36;6.30;99.90
1800;DHT22;919;48.274;12.292;2022-10-31T05:50:04;6.30;99.90
1800;DHT22;919;48.274;12.292;2022-10-31T05:52:31;6.30;99.90
1800;DHT22;919;48.274;12.292;2022-10-31T05:54:58;6.30;99.90
1800;DHT22;919;48.274;12.292;2022-10-31T05:57:25;6.30;99.90
1800;DHT22;919;48.274;12.292;2022-10-31T05:59:52;6.20;99.90
1800;DHT22;919;48.274;12.292;2022-10-31T06:02:19;6.20;99.90
1800;DHT22;919;48.274;12.292;2022-10-31T06:04:47;6.30;99.90
1800;DHT22;919;48.274;12.292;2022-10-31T06:07:14;6.40;99.90
1800;DHT22;919;48.274;12.292;2022-10-31T06:09:40;6.40;99.90
1800;DHT22;919;48.274;12.292;2022-10-31T06:12:07;6.30;99.90
1800;DHT22;919;48.274;12.292;2022-10-31T06:14:34;6.40;99.90
1800;DHT22;919;48.274;12.292;2022-10-31T06:17:01;6.40;99.90
1800;DHT22;919;48.274;12.292;2022-10-31T06:19:27;6.40;99.90
1800;DHT22;919;48.274;12.292;2022-10-31T06:21:55;6.40;99.90
1800;DHT22;919;48.274;12.292;2022-10-31T06:24:22;6.40;99.90
1800;DHT22;919;48.274;12.292;2022-10-31T06:26:49;6.30;99.90
1800;DHT22;919;48.274;12.292;2022-10-31T06:29:16;6.30;99.90
1800;DHT22;919;48.274;12.292;2022-10-31T06:31:42;6.30;99.90
1800;DHT22;919;48.274;12.292;2022-10-31T06:34:09;6.40;99.90
1800;DHT22;919;48.274;12.292;2022-10-31T06:36:36;6.50;99.90
1800;DHT22;919;48.274;12.292;2022-10-31T06:39:04;6.60;99.90
1800;DHT22;919;48.274;12.292;2022-10-31T06:41:31;6.50;99.90
1800;DHT22;919;48.274;12.292;2022-10-31T06:43:58;6.60;99.90
1800;DHT22;919;48.274;12.292;2022-10-31T06:46:24;6.60;99.90
1800;DHT22;919;48.274;12.292;2022-10-31T06:48:51;6.70;99.90
1800;DHT22;919;48.274;12.292;2022-10-31T06:51:18;6.70;99.90
1800;DHT22;919;48.274;12.292;2022-10-31T06:53:45;6.80;99.90
1800;DHT22;919;48.274;12.292;2022-10-31T06:56:13;7.00;99.90
1800;DHT22;919;48.274;12.292;2022-10-31T06:58:40;7.10;99.90
1800;DHT22;919;48.274;12.292;2022-10-31T07:01:07;7.30;99.90
1800;DHT22;919;48.274;12.292;2022-10-31T07:03:34;7.30;99.90
1800;DHT22;919;48.274;12.292;2022-10-31T07:06:00;7.40;99.90
1800;DHT22;919;48.274;12.292;2022-10-31T07:08:27;7.50;99.90
1800;DHT22;919;48.274;12.292;2022-10-31T07:10:55;7.70;99.90
1800;DHT22;919;48.274;12.292;2022-10-31T07:13:24;7.70;99.90
1800;DHT22;919;48.274;12.292;2022-10-31T07:15:52;7.80;99.90
1800;DHT22;919;48.274;12.292;2022-10-31T07:18:19;7.80;99.90
1800;DHT22;919;48.274;12.292;2022-10-31T07:20:46;7.80;99.90
1800;DHT22;919;48.274;12.292;2022-10-31T07:23:14;7.90;99.90
1800;DHT22;919;48.274;12.292;2022-10-31T07:25:41;8.10;99.90
1800;DHT22;919;48.274;12.292;2022-10-31T07:28:09;8.30;99.90
1800;DHT22;919;48.274;12.292;2022-10-31T07:30:37;8.50;99.90
1800;DHT22;919;48.274;12.292;2022-10-31T07:33:05;8.60;99.90
1800;DHT22;919;48.274;12.292;2022-10-31T07:35:32;8.70;99.90
1800;DHT22;919;48.274;12.292;2022-10-31T07:38:07;8.80;99.90
1800;DHT22;919;48.274;12.292;2022-10-31T07:40:34;8.90;99.90
1800;DHT22;919;48.274;12.292;2022-10-31T07:43:01;9.00;99.90
1800;DHT22;919;48.274;12.292;2022-10-31T07:45:28;9.10;99.90
1800;DHT22;919;48.274;12.292;2022-10-31T07:47:56;9.20;99.90
1800;DHT22;919;48.274;12.292;2022-10-31T07:50:24;9.30;99.90
1800;DHT22;919;48.274;12.292;2022-10-31T07:52:58;9.40;99.90
1800;DHT22;919;48.274;12.292;2022-10-31T07:55:25;9.50;99.90
1800;DHT22;919;48.274;12.292;2022-10-31T07:57:56;9.70;99.90
1800;DHT22;919;48.274;12.292;2022-10-31T08:00:42;9.80;99.90
1800;DHT22;919;48.274;12.292;2022-10-31T08:03:28;10.00;99.90
1800;DHT22;919;48.274;12.292;2022-10-31T08:06:02;10.20;99.90
1800;DHT22;919;48.274;12.292;2022-10-31T08:08:29;10.40;99.90
1800;DHT22;919;48.274;12.292;2022-10-31T08:10:58;10.50;99.90
1800;DHT22;919;48.274;12.292;2022-10-31T08:13:25;10.60;99.90
1800;DHT22;919;48.274;12.292;2022-10-31T08:15:52;10.70;99.90
1800;DHT22;919;48.274;12.292;2022-10-31T08:18:21;10.80;99.90
1800;DHT22;919;48.274;12.292;2022-10-31T08:20:49;10.90;99.90
1800;DHT22;919;48.274;12.292;2022-10-31T08:23:15;11.00;99.90
1800;DHT22;919;48.274;12.292;2022-10-31T08:25:42;11.20;99.90
1800;DHT22;919;48.274;12.292;2022-10-31T08:28:11;11.30;99.90
1800;DHT22;919;48.274;12.292;2022-10-31T08:30:38;11.50;99.90
1800;DHT22;919;48.274;12.292;2022-10-31T08:33:09;11.60;99.90
1800;DHT22;919;48.274;12.292;2022-10-31T08:35:38;11.70;99.90
1800;DHT22;919;48.274;12.292;2022-10-31T08:38:05;11.90;99.90
1800;DHT22;919;48.274;12.292;2022-10-31T08:40:33;12.00;99.90
1800;DHT22;919;48.274;12.292;2022-10-31T08:43:03;12.10;99.90
1800;DHT22;919;48.274;12.292;2022-10-31T08:45:31;12.20;99.90
1800;DHT22;919;48.274;12.292;2022-10-31T08:47:59;12.40;99.90
1800;DHT22;919;48.274;12.292;2022-10-31T08:50:26;12.40;99.90
1800;DHT22;919;48.274;12.292;2022-10-31T08:53:00;12.60;99.90
1800;DHT22;919;48.274;12.292;2022-10-31T08:55:27;12.70;99.90
1800;DHT22;919;48.274;12.292;2022-10-31T08:57:55;12.90;99.90
1800;DHT22;919;48.274;12.292;2022-10-31T09:00:22;13.10;99.90
1800;DHT22;919;48.274;12.292;2022-10-31T09:02:59;13.20;99.90
1800;DHT22;919;48.274;12.292;2022-10-31T09:05:26;13.30;99.90
1800;DHT22;919;48.274;12.292;2022-10-31T09:07:56;13.40;99.90
1800;DHT22;919;48.274;12.292;2022-10-31T09:10:24;13.50;99.90
1800;DHT22;919;48.274;12.292;2022-10-31T09:12:55;13.60;99.90
1800;DHT22;919;48.274;12.292;2022-10-31T09:15:22;13.70;99.90
1800;DHT22;919;48.274;12.292;2022-10-31T09:17:49;13.80;99.90
1800;DHT22;919;48.274;12.292;2022-10-31T09:20:16;13.90;99.90
1800;DHT22;919;48.274;12.292;2022-10-31T09:22:43;14.00;99.90
1800;DHT22;919;48.274;12.292;2022-10-31T09:25:11;14.10;99.90
1800;DHT22;919;48.274;12.292;2022-10-31T09:27:38;14.30;99.90
1800;DHT22;919;48.274;12.292;2022-10-31T09:30:07;14.50;99.90
1800;DHT22;919;48.274;12.292;2022-10-31T09:32:34;14.60;99.90
1800;DHT22;919;48.274;12.292;2022-10-31T09:35:01;14.80;99.90
1800;DHT22;919;48.274;12.292;2022-10-31T09:37:28;15.10;99.90
1800;DHT22;919;48.274;12.292;2022-10-31T09:39:54;15.20;99.90
1800;DHT22;919;48.274;12.292;2022-10-31T09:42:41;15.30;99.90
1800;DHT22;919;48.274;12.292;2022-10-31T09:45:16;15.40;99.90
1800;DHT22;919;48.274;12.292;2022-10-31T09:47:53;15.40;99.90
1800;DHT22;919;48.274;12.292;2022-10-31T09:50:24;15.50;99.90
1800;DHT22;919;48.274;12.292;2022-10-31T09:53:00;15.70;99.90
1800;DHT22;919;48.274;12.292;2022-10-31T09:55:35;15.80;99.90
1800;DHT22;919;48.274;12.292;2022-10-31T09:58:04;16.00;99.90
1800;DHT22;919;48.274;12.292;2022-10-31T10:00:31;16.30;99.90
1800;DHT22;919;48.274;12.292;2022-10-31T10:03:04;16.50;99.90
1800;DHT22;919;48.274;12.292;2022-10-31T10:05:37;16.50;99.90
1800;DHT22;919;48.274;12.292;2022-10-31T10:08:10;16.50;99.90
1800;DHT22;919;48.274;12.292;2022-10-31T10:10:48;16.60;99.90
1800;DHT22;919;48.274;12.292;2022-10-31T10:13:36;16.60;99.90
1800;DHT22;919;48.274;12.292;2022-10-31T10:16:18;16.60;99.90
1800;DHT22;919;48.274;12.292;2022-10-31T10:19:00;17.00;99.90
1800;DHT22;919;48.274;12.292;2022-10-31T10:21:39;17.20;99.90
1800;DHT22;919;48.274;12.292;2022-10-31T10:24:21;17.10;99.90
1800;DHT22;919;48.274;12.292;2022-10-31T10:26:56;17.10;99.90
1800;DHT22;919;48.274;12.292;2022-10-31T10:29:33;17.20;99.90
1800;DHT22;919;48.274;12.292;2022-10-31T10:32:09;17.30;99.90
1800;DHT22;919;48.274;12.292;2022-10-31T10:34:41;17.30;99.90
1800;DHT22;919;48.274;12.292;2022-10-31T10:37:20;17.30;99.90
1800;DHT22;919;48.274;12.292;2022-10-31T10:39:51;17.40;99.90
1800;DHT22;919;48.274;12.292;2022-10-31T10:42:19;17.40;99.90
1800;DHT22;919;48.274;12.292;2022-10-31T10:45:17;17.50;99.90
1800;DHT22;919;48.274;12.292;2022-10-31T10:48:08;17.60;99.90
1800;DHT22;919;48.274;12.292;2022-10-31T10:50:41;17.40;99.90
1800;DHT22;919;48.274;12.292;2022-10-31T10:53:22;17.10;99.90
1800;DHT22;919;48.274;12.292;2022-10-31T10:56:00;17.10;99.90
1800;DHT22;919;48.274;12.292;2022-10-31T10:58:29;17.00;99.90
1800;DHT22;919;48.274;12.292;2022-10-31T11:00:57;17.00;99.90
1800;DHT22;919;48.274;12.292;2022-10-31T11:03:24;17.10;99.90
1800;DHT22;919;48.274;12.292;2022-10-31T11:05:52;17.10;99.90
1800;DHT22;919;48.274;12.292;2022-10-31T11:08:26;17.00;99.90
1800;DHT22;919;48.274;12.292;2022-10-31T11:11:00;17.20;99.90
1800;DHT22;919;48.274;12.292;2022-10-31T11:13:28;17.20;99.90
1800;DHT22;919;48.274;12.292;2022-10-31T11:16:00;17.10;99.90
1800;DHT22;919;48.274;12.292;2022-10-31T11:18:31;17.20;99.90
1800;DHT22;919;48.274;12.292;2022-10-31T11:21:00;17.30;99.90
1800;DHT22;919;48.274;12.292;2022-10-31T11:23:28;17.40;99.90
1800;DHT22;919;48.274;12.292;2022-10-31T11:25:57;17.50;99.90
1800;DHT22;919;48.274;12.292;2022-10-31T11:28:25;17.70;99.90
1800;DHT22;919;48.274;12.292;2022-10-31T11:30:55;17.80;99.90
1800;DHT22;919;48.274;12.292;2022-10-31T11:33:28;18.00;99.90
1800;DHT22;919;48.274;12.292;2022-10-31T11:35:56;18.10;99.90
1800;DHT22;919;48.274;12.292;2022-10-31T11:38:26;18.10;99.90
1800;DHT22;919;48.274;12.292;2022-10-31T11:40:58;18.00;99.90
1800;DHT22;919;48.274;12.292;2022-10-31T11:43:26;17.90;99.90
1800;DHT22;919;48.274;12.292;2022-10-31T11:45:53;18.00;99.90
1800;DHT22;919;48.274;12.292;2022-10-31T11:48:22;18.10;99.90
1800;DHT22;919;48.274;12.292;2022-10-31T11:50:52;17.90;99.90
1800;DHT22;919;48.274;12.292;2022-10-31T11:53:28;17.80;99.90
1800;DHT22;919;48.274;12.292;2022-10-31T11:56:05;17.80;99.90
1800;DHT22;919;48.274;12.292;2022-10-31T11:58:32;17.90;99.90
1800;DHT22;919;48.274;12.292;2022-10-31T12:00:59;18.00;99.90
1800;DHT22;919;48.274;12.292;2022-10-31T12:03:41;17.90;99.90
1800;DHT22;919;48.274;12.292;2022-10-31T12:06:14;17.90;99.90
1800;DHT22;919;48.274;12.292;2022-10-31T12:08:44;17.80;99.90
1800;DHT22;919;48.274;12.292;2022-10-31T12:11:27;17.70;99.90
1800;DHT22;919;48.274;12.292;2022-10-31T12:14:06;17.70;99.90
1800;DHT22;919;48.274;12.292;2022-10-31T12:16:38;17.60;99.90
1800;DHT22;919;48.274;12.292;2022-10-31T12:19:12;17.50;99.90
1800;DHT22;919;48.274;12.292;2022-10-31T12:22:04;17.40;99.90
1800;DHT22;919;48.274;12.292;2022-10-31T12:24:47;17.30;99.90
1800;DHT22;919;48.274;12.292;2022-10-31T12:27:27;17.40;99.90
1800;DHT22;919;48.274;12.292;2022-10-31T12:30:12;17.40;99.90
1800;DHT22;919;48.274;12.292;2022-10-31T12:32:47;17.30;99.90
1800;DHT22;919;48.274;12.292;2022-10-31T12:35:30;17.30;99.90
1800;DHT22;919;48.274;12.292;2022-10-31T12:38:15;17.30;99.90
1800;DHT22;919;48.274;12.292;2022-10-31T12:40:54;17.30;99.90
1800;DHT22;919;48.274;12.292;2022-10-31T12:43:32;17.30;99.90
1800;DHT22;919;48.274;12.292;2022-10-31T12:46:03;17.30;99.90
1800;DHT22;919;48.274;12.292;2022-10-31T12:49:04;17.30;99.90
1800;DHT22;919;48.274;12.292;2022-10-31T12:51:40;17.30;99.90
1800;DHT22;919;48.274;12.292;2022-10-31T12:54:29;17.20;99.90
1800;DHT22;919;48.274;12.292;2022-10-31T12:57:07;17.20;99.90
1800;DHT22;919;48.274;12.292;2022-10-31T12:59:42;17.20;99.90
1800;DHT22;919;48.274;12.292;2022-10-31T13:02:16;17.20;99.90
1800;DHT22;919;48.274;12.292;2022-10-31T13:04:49;17.20;99.90
1800;DHT22;919;48.274;12.292;2022-10-31T13:07:24;17.20;99.90
1800;DHT22;919;48.274;12.292;2022-10-31T13:09:56;17.20;99.90
1800;DHT22;919;48.274;12.292;2022-10-31T13:12:27;17.10;99.90
1800;DHT22;919;48.274;12.292;2022-10-31T13:14:56;17.10;99.90
1800;DHT22;919;48.274;12.292;2022-10-31T13:17:28;17.20;99.90
1800;DHT22;919;48.274;12.292;2022-10-31T13:20:08;17.20;99.90
1800;DHT22;919;48.274;12.292;2022-10-31T13:22:38;17.30;99.90
1800;DHT22;919;48.274;12.292;2022-10-31T13:25:15;17.30;99.90
1800;DHT22;919;48.274;12.292;2022-10-31T13:27:46;17.40;99.90
1800;DHT22;919;48.274;12.292;2022-10-31T13:30:16;17.40;99.90
1800;DHT22;919;48.274;12.292;2022-10-31T13:32:48;17.40;99.90
1800;DHT22;919;48.274;12.292;2022-10-31T13:35:21;17.50;99.90
1800;DHT22;919;48.274;12.292;2022-10-31T13:37:57;17.50;99.90
1800;DHT22;919;48.274;12.292;2022-10-31T13:40:34;17.50;99.90
1800;DHT22;919;48.274;12.292;2022-10-31T13:45:51;17.50;99.90
1800;DHT22;919;48.274;12.292;2022-10-31T13:48:33;17.50;99.90
1800;DHT22;919;48.274;12.292;2022-10-31T13:51:02;17.30;99.90
1800;DHT22;919;48.274;12.292;2022-10-31T13:53:44;17.20;99.90
1800;DHT22;919;48.274;12.292;2022-10-31T13:56:17;17.20;99.90
1800;DHT22;919;48.274;12.292;2022-10-31T13:58:58;17.10;99.90
1800;DHT22;919;48.274;12.292;2022-10-31T14:01:26;17.10;99.90
1800;DHT22;919;48.274;12.292;2022-10-31T14:04:01;17.10;99.90
1800;DHT22;919;48.274;12.292;2022-10-31T14:06:37;17.20;99.90
1800;DHT22;919;48.274;12.292;2022-10-31T14:09:05;17.40;99.90
1800;DHT22;919;48.274;12.292;2022-10-31T14:11:33;17.50;99.90
1800;DHT22;919;48.274;12.292;2022-10-31T14:14:01;17.60;99.90
1800;DHT22;919;48.274;12.292;2022-10-31T14:16:29;17.60;99.90
1800;DHT22;919;48.274;12.292;2022-10-31T14:18:59;17.60;99.90
1800;DHT22;919;48.274;12.292;2022-10-31T14:21:29;17.60;99.90
1800;DHT22;919;48.274;12.292;2022-10-31T14:23:57;17.60;99.90
1800;DHT22;919;48.274;12.292;2022-10-31T14:26:35;17.70;99.90
1800;DHT22;919;48.274;12.292;2022-10-31T14:29:21;17.80;99.90
1800;DHT22;919;48.274;12.292;2022-10-31T14:31:55;17.70;99.90
1800;DHT22;919;48.274;12.292;2022-10-31T14:34:25;17.60;99.90
1800;DHT22;919;48.274;12.292;2022-10-31T14:37:14;17.50;99.90
1800;DHT22;919;48.274;12.292;2022-10-31T14:39:52;17.40;99.90
1800;DHT22;919;48.274;12.292;2022-10-31T14:42:34;17.20;99.90
1800;DHT22;919;48.274;12.292;2022-10-31T14:45:24;17.20;99.90
1800;DHT22;919;48.274;12.292;2022-10-31T14:48:12;17.00;99.90
1800;DHT22;919;48.274;12.292;2022-10-31T14:50:47;16.90;99.90
1800;DHT22;919;48.274;12.292;2022-10-31T14:53:19;16.90;99.90
1800;DHT22;919;48.274;12.292;2022-10-31T14:55:49;16.80;99.90
1800;DHT22;919;48.274;12.292;2022-10-31T14:58:21;16.80;99.90
1800;DHT22;919;48.274;12.292;2022-10-31T15:00:51;16.70;99.90
1800;DHT22;919;48.274;12.292;2022-10-31T15:03:24;16.60;99.90
1800;DHT22;919;48.274;12.292;2022-10-31T15:05:56;16.40;99.90
1800;DHT22;919;48.274;12.292;2022-10-31T15:08:35;16.40;99.90
1800;DHT22;919;48.274;12.292;2022-10-31T15:11:12;16.40;99.90
1800;DHT22;919;48.274;12.292;2022-10-31T15:13:47;16.30;99.90
1800;DHT22;919;48.274;12.292;2022-10-31T15:16:16;16.20;99.90
1800;DHT22;919;48.274;12.292;2022-10-31T15:18:51;16.10;99.90
1800;DHT22;919;48.274;12.292;2022-10-31T15:21:19;16.00;99.90
1800;DHT22;919;48.274;12.292;2022-10-31T15:23:47;16.00;99.90
1800;DHT22;919;48.274;12.292;2022-10-31T15:26:18;15.90;99.90
1800;DHT22;919;48.274;12.292;2022-10-31T15:28:57;15.80;99.90
1800;DHT22;919;48.274;12.292;2022-10-31T15:31:25;15.70;99.90
1800;DHT22;919;48.274;12.292;2022-10-31T15:33:53;15.60;99.90
1800;DHT22;919;48.274;12.292;2022-10-31T15:36:24;15.50;99.90
1800;DHT22;919;48.274;12.292;2022-10-31T15:38:51;15.40;99.90
1800;DHT22;919;48.274;12.292;2022-10-31T15:41:23;15.30;99.90
1800;DHT22;919;48.274;12.292;2022-10-31T15:43:52;15.20;99.90
1800;DHT22;919;48.274;12.292;2022-10-31T15:46:20;15.10;99.90
1800;DHT22;919;48.274;12.292;2022-10-31T15:48:47;15.00;99.90
1800;DHT22;919;48.274;12.292;2022-10-31T15:51:14;14.80;99.90
1800;DHT22;919;48.274;12.292;2022-10-31T15:53:44;14.70;99.90
1800;DHT22;919;48.274;12.292;2022-10-31T15:56:19;14.50;99.90
1800;DHT22;919;48.274;12.292;2022-10-31T15:58:50;14.50;99.90
1800;DHT22;919;48.274;12.292;2022-10-31T16:01:24;14.40;99.90
1800;DHT22;919;48.274;12.292;2022-10-31T16:04:05;14.30;99.90
1800;DHT22;919;48.274;12.292;2022-10-31T16:06:58;14.20;99.90
1800;DHT22;919;48.274;12.292;2022-10-31T16:09:25;14.10;99.90
1800;DHT22;919;48.274;12.292;2022-10-31T16:11:52;14.00;99.90
1800;DHT22;919;48.274;12.292;2022-10-31T16:14:23;13.90;99.90
1800;DHT22;919;48.274;12.292;2022-10-31T16:16:54;13.80;99.90
1800;DHT22;919;48.274;12.292;2022-10-31T16:19:24;13.70;99.90
1800;DHT22;919;48.274;12.292;2022-10-31T16:21:53;13.70;99.90
1800;DHT22;919;48.274;12.292;2022-10-31T16:24:24;13.60;99.90
1800;DHT22;919;48.274;12.292;2022-10-31T16:26:54;13.60;99.90
1800;DHT22;919;48.274;12.292;2022-10-31T16:29:38;13.60;99.90
1800;DHT22;919;48.274;12.292;2022-10-31T16:32:25;13.50;99.90
1800;DHT22;919;48.274;12.292;2022-10-31T16:34:58;13.40;99.90
1800;DHT22;919;48.274;12.292;2022-10-31T16:37:25;13.40;99.90
1800;DHT22;919;48.274;12.292;2022-10-31T16:39:52;13.40;99.90